sensor_id;sensor_type;location;lat;lon;timestamp;temperature;humidity
46378;DHT22;32083;47.360;9.650;2022-08-01T00:02:38;22.50;61.70
46378;DHT22;32083;47.360;9.650;2022-08-01T00:06:02;22.50;62.20
46378;DHT22;32083;47.360;9.650;2022-08-01T00:12:15;22.40;61.30
46378;DHT22;32083;47.360;9.650;2022-08-01T00:18:02;22.30;61.40
46378;DHT22;32083;47.360;9.650;2022-08-01T00:21:29;22.30;61.00
46378;DHT22;32083;47.360;9.650;2022-08-01T00:28:47;22.30;62.30
46378;DHT22;32083;47.360;9.650;2022-08-01T00:34:08;22.20;62.30
46378;DHT22;32083;47.360;9.650;2022-08-01T00:37:08;22.20;62.40
46378;DHT22;32083;47.360;9.650;2022-08-01T00:43:11;22.10;61.70
46378;DHT22;32083;47.360;9.650;2022-08-01T00:46:32;22.10;62.90
46378;DHT22;32083;47.360;9.650;2022-08-01T00:49:58;22.00;64.40
46378;DHT22;32083;47.360;9.650;2022-08-01T00:53:15;21.90;64.70
46378;DHT22;32083;47.360;9.650;2022-08-01T00:56:51;21.90;64.60
46378;DHT22;32083;47.360;9.650;2022-08-01T01:00:46;21.90;65.00
46378;DHT22;32083;47.360;9.650;2022-08-01T01:03:48;21.80;65.10
46378;DHT22;32083;47.360;9.650;2022-08-01T01:07:19;21.70;65.90
46378;DHT22;32083;47.360;9.650;2022-08-01T01:14:14;21.80;65.90
46378;DHT22;32083;47.360;9.650;2022-08-01T01:17:32;21.80;66.20
46378;DHT22;32083;47.360;9.650;2022-08-01T01:27:47;21.80;66.40
46378;DHT22;32083;47.360;9.650;2022-08-01T01:31:18;21.80;65.30
46378;DHT22;32083;47.360;9.650;2022-08-01T01:34:38;21.70;65.50
46378;DHT22;32083;47.360;9.650;2022-08-01T01:37:46;21.70;67.00
46378;DHT22;32083;47.360;9.650;2022-08-01T01:43:22;21.60;66.40
46378;DHT22;32083;47.360;9.650;2022-08-01T01:46:45;21.60;67.50
46378;DHT22;32083;47.360;9.650;2022-08-01T01:52:59;21.50;69.00
46378;DHT22;32083;47.360;9.650;2022-08-01T01:56:20;21.40;69.10
46378;DHT22;32083;47.360;9.650;2022-08-01T01:59:10;21.40;68.20
46378;DHT22;32083;47.360;9.650;2022-08-01T02:02:57;21.30;69.10
46378;DHT22;32083;47.360;9.650;2022-08-01T02:05:46;21.20;69.00
46378;DHT22;32083;47.360;9.650;2022-08-01T02:11:54;21.10;69.00
46378;DHT22;32083;47.360;9.650;2022-08-01T02:15:14;21.10;69.90
46378;DHT22;32083;47.360;9.650;2022-08-01T02:21:08;20.90;70.70
46378;DHT22;32083;47.360;9.650;2022-08-01T02:34:23;20.70;72.10
46378;DHT22;32083;47.360;9.650;2022-08-01T02:37:56;20.60;70.70
46378;DHT22;32083;47.360;9.650;2022-08-01T02:41:17;20.60;71.60
46378;DHT22;32083;47.360;9.650;2022-08-01T02:44:37;20.50;72.70
46378;DHT22;32083;47.360;9.650;2022-08-01T02:48:00;20.40;71.90
46378;DHT22;32083;47.360;9.650;2022-08-01T02:50:55;20.40;72.90
46378;DHT22;32083;47.360;9.650;2022-08-01T02:54:18;20.40;71.80
46378;DHT22;32083;47.360;9.650;2022-08-01T03:09:43;20.10;70.90
46378;DHT22;32083;47.360;9.650;2022-08-01T03:15:24;20.20;71.20
46378;DHT22;32083;47.360;9.650;2022-08-01T03:18:28;20.20;72.30
46378;DHT22;32083;47.360;9.650;2022-08-01T03:29:25;20.10;74.50
46378;DHT22;32083;47.360;9.650;2022-08-01T03:35:47;20.00;75.70
46378;DHT22;32083;47.360;9.650;2022-08-01T03:38:40;20.00;75.40
46378;DHT22;32083;47.360;9.650;2022-08-01T03:41:34;20.00;76.40
46378;DHT22;32083;47.360;9.650;2022-08-01T03:44:23;20.00;74.60
46378;DHT22;32083;47.360;9.650;2022-08-01T03:47:24;20.00;74.70
46378;DHT22;32083;47.360;9.650;2022-08-01T03:51:08;19.90;76.00
46378;DHT22;32083;47.360;9.650;2022-08-01T03:54:26;19.80;75.90
46378;DHT22;32083;47.360;9.650;2022-08-01T03:57:39;19.80;75.10
46378;DHT22;32083;47.360;9.650;2022-08-01T04:01:01;19.70;74.70
46378;DHT22;32083;47.360;9.650;2022-08-01T04:06:54;19.70;76.20
46378;DHT22;32083;47.360;9.650;2022-08-01T04:09:51;19.60;75.20
46378;DHT22;32083;47.360;9.650;2022-08-01T04:12:37;19.60;75.90
46378;DHT22;32083;47.360;9.650;2022-08-01T04:15:26;19.60;75.30
46378;DHT22;32083;47.360;9.650;2022-08-01T04:18:46;19.60;76.70
46378;DHT22;32083;47.360;9.650;2022-08-01T04:21:47;19.60;76.60
46378;DHT22;32083;47.360;9.650;2022-08-01T04:24:29;19.50;77.50
46378;DHT22;32083;47.360;9.650;2022-08-01T04:27:49;19.50;77.30
46378;DHT22;32083;47.360;9.650;2022-08-01T04:30:27;19.50;77.10
46378;DHT22;32083;47.360;9.650;2022-08-01T04:32:57;19.50;77.60
46378;DHT22;32083;47.360;9.650;2022-08-01T04:35:25;19.50;77.40
46378;DHT22;32083;47.360;9.650;2022-08-01T04:37:53;19.60;78.20
46378;DHT22;32083;47.360;9.650;2022-08-01T04:40:19;19.60;78.50
46378;DHT22;32083;47.360;9.650;2022-08-01T04:42:49;19.60;77.70
46378;DHT22;32083;47.360;9.650;2022-08-01T04:45:16;19.60;77.60
46378;DHT22;32083;47.360;9.650;2022-08-01T04:47:43;19.60;78.90
46378;DHT22;32083;47.360;9.650;2022-08-01T04:50:10;19.70;78.70
46378;DHT22;32083;47.360;9.650;2022-08-01T04:52:37;19.70;78.30
46378;DHT22;32083;47.360;9.650;2022-08-01T04:55:05;19.70;78.30
46378;DHT22;32083;47.360;9.650;2022-08-01T04:57:37;19.80;78.10
46378;DHT22;32083;47.360;9.650;2022-08-01T05:00:05;19.80;78.40
46378;DHT22;32083;47.360;9.650;2022-08-01T05:02:32;19.70;78.30
46378;DHT22;32083;47.360;9.650;2022-08-01T05:04:58;19.80;77.80
46378;DHT22;32083;47.360;9.650;2022-08-01T05:07:24;19.90;78.10
46378;DHT22;32083;47.360;9.650;2022-08-01T05:09:50;19.90;77.30
46378;DHT22;32083;47.360;9.650;2022-08-01T05:12:17;19.90;77.30
46378;DHT22;32083;47.360;9.650;2022-08-01T05:14:43;19.90;78.60
46378;DHT22;32083;47.360;9.650;2022-08-01T05:17:09;20.00;77.50
46378;DHT22;32083;47.360;9.650;2022-08-01T05:19:38;20.00;78.00
46378;DHT22;32083;47.360;9.650;2022-08-01T05:22:07;20.00;77.50
46378;DHT22;32083;47.360;9.650;2022-08-01T05:24:35;20.00;78.00
46378;DHT22;32083;47.360;9.650;2022-08-01T05:27:01;20.20;77.80
46378;DHT22;32083;47.360;9.650;2022-08-01T05:29:29;20.90;76.60
46378;DHT22;32083;47.360;9.650;2022-08-01T05:31:55;21.40;77.00
46378;DHT22;32083;47.360;9.650;2022-08-01T05:34:22;21.80;76.00
46378;DHT22;32083;47.360;9.650;2022-08-01T05:36:48;22.20;73.30
46378;DHT22;32083;47.360;9.650;2022-08-01T05:39:14;22.30;74.10
46378;DHT22;32083;47.360;9.650;2022-08-01T05:41:41;22.50;73.40
46378;DHT22;32083;47.360;9.650;2022-08-01T05:44:07;22.50;68.90
46378;DHT22;32083;47.360;9.650;2022-08-01T05:46:33;22.30;70.10
46378;DHT22;32083;47.360;9.650;2022-08-01T05:49:01;22.20;70.40
46378;DHT22;32083;47.360;9.650;2022-08-01T05:51:27;22.10;71.60
46378;DHT22;32083;47.360;9.650;2022-08-01T05:53:54;22.50;70.60
46378;DHT22;32083;47.360;9.650;2022-08-01T05:56:21;22.90;71.30
46378;DHT22;32083;47.360;9.650;2022-08-01T06:01:22;23.20;72.30
46378;DHT22;32083;47.360;9.650;2022-08-01T06:03:52;23.50;72.20
46378;DHT22;32083;47.360;9.650;2022-08-01T06:06:37;23.80;72.10
46378;DHT22;32083;47.360;9.650;2022-08-01T06:09:05;24.20;70.00
46378;DHT22;32083;47.360;9.650;2022-08-01T06:12:00;24.50;68.20
46378;DHT22;32083;47.360;9.650;2022-08-01T06:17:48;25.00;67.90
46378;DHT22;32083;47.360;9.650;2022-08-01T06:21:30;25.20;66.10
46378;DHT22;32083;47.360;9.650;2022-08-01T06:24:27;25.20;58.90
46378;DHT22;32083;47.360;9.650;2022-08-01T06:27:35;25.20;59.70
46378;DHT22;32083;47.360;9.650;2022-08-01T06:30:19;25.30;63.80
46378;DHT22;32083;47.360;9.650;2022-08-01T06:33:26;25.40;60.80
46378;DHT22;32083;47.360;9.650;2022-08-01T06:40:01;25.60;58.60
46378;DHT22;32083;47.360;9.650;2022-08-01T06:42:52;25.60;59.40
46378;DHT22;32083;47.360;9.650;2022-08-01T06:45:54;25.40;57.70
46378;DHT22;32083;47.360;9.650;2022-08-01T06:49:03;25.50;59.30
46378;DHT22;32083;47.360;9.650;2022-08-01T06:52:22;25.40;59.40
46378;DHT22;32083;47.360;9.650;2022-08-01T06:55:14;25.30;58.10
46378;DHT22;32083;47.360;9.650;2022-08-01T07:03:35;25.60;59.60
46378;DHT22;32083;47.360;9.650;2022-08-01T07:06:35;25.70;58.40
46378;DHT22;32083;47.360;9.650;2022-08-01T07:10:15;25.70;56.30
46378;DHT22;32083;47.360;9.650;2022-08-01T07:12:48;25.70;56.90
46378;DHT22;32083;47.360;9.650;2022-08-01T07:16:21;25.80;58.00
46378;DHT22;32083;47.360;9.650;2022-08-01T07:18:57;25.90;54.70
46378;DHT22;32083;47.360;9.650;2022-08-01T07:21:48;25.90;56.20
46378;DHT22;32083;47.360;9.650;2022-08-01T07:25:09;26.00;56.10
46378;DHT22;32083;47.360;9.650;2022-08-01T07:28:21;26.10;55.50
46378;DHT22;32083;47.360;9.650;2022-08-01T07:34:50;26.20;54.30
46378;DHT22;32083;47.360;9.650;2022-08-01T07:37:47;26.30;55.50
46378;DHT22;32083;47.360;9.650;2022-08-01T07:44:39;26.40;56.10
46378;DHT22;32083;47.360;9.650;2022-08-01T07:47:54;26.40;56.00
46378;DHT22;32083;47.360;9.650;2022-08-01T07:50:55;26.40;52.90
46378;DHT22;32083;47.360;9.650;2022-08-01T07:54:06;26.40;55.00
46378;DHT22;32083;47.360;9.650;2022-08-01T07:57:46;26.30;52.40
46378;DHT22;32083;47.360;9.650;2022-08-01T08:33:06;26.30;53.60
46378;DHT22;32083;47.360;9.650;2022-08-01T08:36:13;26.40;53.10
46378;DHT22;32083;47.360;9.650;2022-08-01T09:22:54;26.30;52.20
46378;DHT22;32083;47.360;9.650;2022-08-01T09:25:20;26.20;51.50
46378;DHT22;32083;47.360;9.650;2022-08-01T09:27:46;26.00;52.30
46378;DHT22;32083;47.360;9.650;2022-08-01T09:30:18;26.00;52.50
46378;DHT22;32083;47.360;9.650;2022-08-01T09:32:54;26.20;52.20
46378;DHT22;32083;47.360;9.650;2022-08-01T09:35:40;26.20;51.00
46378;DHT22;32083;47.360;9.650;2022-08-01T09:38:18;26.10;50.20
46378;DHT22;32083;47.360;9.650;2022-08-01T09:43:12;26.20;51.50
46378;DHT22;32083;47.360;9.650;2022-08-01T09:45:38;26.40;52.70
46378;DHT22;32083;47.360;9.650;2022-08-01T09:48:08;26.30;50.60
46378;DHT22;32083;47.360;9.650;2022-08-01T09:50:42;26.30;49.80
46378;DHT22;32083;47.360;9.650;2022-08-01T09:53:10;26.20;51.20
46378;DHT22;32083;47.360;9.650;2022-08-01T09:55:40;26.30;51.80
46378;DHT22;32083;47.360;9.650;2022-08-01T09:58:07;26.40;50.10
46378;DHT22;32083;47.360;9.650;2022-08-01T10:00:34;26.40;51.00
46378;DHT22;32083;47.360;9.650;2022-08-01T10:03:22;26.40;48.20
46378;DHT22;32083;47.360;9.650;2022-08-01T10:05:48;26.50;49.50
46378;DHT22;32083;47.360;9.650;2022-08-01T10:08:15;26.40;49.90
46378;DHT22;32083;47.360;9.650;2022-08-01T10:10:41;26.50;50.90
46378;DHT22;32083;47.360;9.650;2022-08-01T10:13:08;26.60;52.20
46378;DHT22;32083;47.360;9.650;2022-08-01T10:15:35;26.70;50.20
46378;DHT22;32083;47.360;9.650;2022-08-01T10:18:04;26.80;49.70
46378;DHT22;32083;47.360;9.650;2022-08-01T10:20:32;26.90;49.70
46378;DHT22;32083;47.360;9.650;2022-08-01T10:23:00;27.00;50.80
46378;DHT22;32083;47.360;9.650;2022-08-01T10:25:28;27.00;50.70
46378;DHT22;32083;47.360;9.650;2022-08-01T10:27:55;27.10;51.40
46378;DHT22;32083;47.360;9.650;2022-08-01T10:30:23;27.10;50.90
46378;DHT22;32083;47.360;9.650;2022-08-01T10:32:50;27.00;50.20
46378;DHT22;32083;47.360;9.650;2022-08-01T10:35:18;27.00;50.80
46378;DHT22;32083;47.360;9.650;2022-08-01T10:37:48;27.00;51.50
46378;DHT22;32083;47.360;9.650;2022-08-01T10:40:16;27.10;50.90
46378;DHT22;32083;47.360;9.650;2022-08-01T10:42:43;27.10;51.10
46378;DHT22;32083;47.360;9.650;2022-08-01T10:45:12;27.20;52.40
46378;DHT22;32083;47.360;9.650;2022-08-01T10:47:48;27.20;51.80
46378;DHT22;32083;47.360;9.650;2022-08-01T10:53:10;27.10;50.30
46378;DHT22;32083;47.360;9.650;2022-08-01T10:56:02;27.20;53.10
46378;DHT22;32083;47.360;9.650;2022-08-01T10:58:37;27.10;49.70
46378;DHT22;32083;47.360;9.650;2022-08-01T11:09:23;27.20;51.80
46378;DHT22;32083;47.360;9.650;2022-08-01T11:12:05;27.30;52.80
46378;DHT22;32083;47.360;9.650;2022-08-01T11:14:34;27.40;52.00
46378;DHT22;32083;47.360;9.650;2022-08-01T11:17:40;27.40;50.80
46378;DHT22;32083;47.360;9.650;2022-08-01T11:20:25;27.30;51.00
46378;DHT22;32083;47.360;9.650;2022-08-01T11:26:06;27.50;51.60
46378;DHT22;32083;47.360;9.650;2022-08-01T11:30:45;27.70;50.70
46378;DHT22;32083;47.360;9.650;2022-08-01T11:33:12;27.70;51.40
46378;DHT22;32083;47.360;9.650;2022-08-01T11:41:33;27.70;48.50
46378;DHT22;32083;47.360;9.650;2022-08-01T11:44:00;27.70;48.30
46378;DHT22;32083;47.360;9.650;2022-08-01T11:47:05;27.70;49.90
46378;DHT22;32083;47.360;9.650;2022-08-01T11:52:29;27.70;50.10
46378;DHT22;32083;47.360;9.650;2022-08-01T11:55:06;27.90;49.40
46378;DHT22;32083;47.360;9.650;2022-08-01T11:57:33;28.00;49.60
46378;DHT22;32083;47.360;9.650;2022-08-01T12:00:17;28.10;50.40
46378;DHT22;32083;47.360;9.650;2022-08-01T12:02:45;28.00;47.90
46378;DHT22;32083;47.360;9.650;2022-08-01T12:05:16;28.10;48.30
46378;DHT22;32083;47.360;9.650;2022-08-01T12:07:51;28.10;49.50
46378;DHT22;32083;47.360;9.650;2022-08-01T12:10:20;28.00;47.30
46378;DHT22;32083;47.360;9.650;2022-08-01T12:12:55;28.10;48.60
46378;DHT22;32083;47.360;9.650;2022-08-01T12:15:33;28.10;48.90
46378;DHT22;32083;47.360;9.650;2022-08-01T12:18:01;28.10;48.40
46378;DHT22;32083;47.360;9.650;2022-08-01T12:20:29;28.10;49.10
46378;DHT22;32083;47.360;9.650;2022-08-01T12:22:56;28.10;50.30
46378;DHT22;32083;47.360;9.650;2022-08-01T12:25:23;28.20;48.80
46378;DHT22;32083;47.360;9.650;2022-08-01T12:27:50;28.30;49.20
46378;DHT22;32083;47.360;9.650;2022-08-01T12:30:18;28.20;48.00
46378;DHT22;32083;47.360;9.650;2022-08-01T12:32:49;28.20;47.50
46378;DHT22;32083;47.360;9.650;2022-08-01T12:35:20;28.30;48.70
46378;DHT22;32083;47.360;9.650;2022-08-01T12:37:54;28.30;46.90
46378;DHT22;32083;47.360;9.650;2022-08-01T12:40:28;28.40;47.70
46378;DHT22;32083;47.360;9.650;2022-08-01T12:43:05;28.50;47.90
46378;DHT22;32083;47.360;9.650;2022-08-01T12:45:40;28.50;47.60
46378;DHT22;32083;47.360;9.650;2022-08-01T12:48:14;28.60;48.10
46378;DHT22;32083;47.360;9.650;2022-08-01T12:50:50;28.50;45.00
46378;DHT22;32083;47.360;9.650;2022-08-01T12:53:17;28.70;45.70
46378;DHT22;32083;47.360;9.650;2022-08-01T12:58:15;28.90;45.70
46378;DHT22;32083;47.360;9.650;2022-08-01T13:00:44;28.80;45.60
46378;DHT22;32083;47.360;9.650;2022-08-01T13:03:13;29.00;47.10
46378;DHT22;32083;47.360;9.650;2022-08-01T13:05:54;29.00;45.50
46378;DHT22;32083;47.360;9.650;2022-08-01T13:08:22;29.10;44.20
46378;DHT22;32083;47.360;9.650;2022-08-01T13:10:50;29.20;43.90
46378;DHT22;32083;47.360;9.650;2022-08-01T13:13:18;29.00;43.40
46378;DHT22;32083;47.360;9.650;2022-08-01T13:15:45;29.10;44.40
46378;DHT22;32083;47.360;9.650;2022-08-01T13:18:25;29.40;45.20
46378;DHT22;32083;47.360;9.650;2022-08-01T13:23:33;29.40;43.90
46378;DHT22;32083;47.360;9.650;2022-08-01T13:25:59;29.40;42.90
46378;DHT22;32083;47.360;9.650;2022-08-01T13:28:26;29.50;44.20
46378;DHT22;32083;47.360;9.650;2022-08-01T13:31:07;29.70;45.90
46378;DHT22;32083;47.360;9.650;2022-08-01T13:33:45;29.70;42.20
46378;DHT22;32083;47.360;9.650;2022-08-01T13:36:12;29.80;43.80
46378;DHT22;32083;47.360;9.650;2022-08-01T13:38:39;29.90;43.60
46378;DHT22;32083;47.360;9.650;2022-08-01T13:41:23;30.00;43.70
46378;DHT22;32083;47.360;9.650;2022-08-01T13:43:50;29.90;43.20
46378;DHT22;32083;47.360;9.650;2022-08-01T13:46:16;30.00;42.50
46378;DHT22;32083;47.360;9.650;2022-08-01T13:48:42;30.00;43.40
46378;DHT22;32083;47.360;9.650;2022-08-01T13:51:08;30.20;44.40
46378;DHT22;32083;47.360;9.650;2022-08-01T13:53:35;30.10;42.40
46378;DHT22;32083;47.360;9.650;2022-08-01T13:56:01;30.00;42.80
46378;DHT22;32083;47.360;9.650;2022-08-01T13:58:27;30.00;42.80
46378;DHT22;32083;47.360;9.650;2022-08-01T14:00:54;29.90;42.60
46378;DHT22;32083;47.360;9.650;2022-08-01T14:03:21;29.80;42.50
46378;DHT22;32083;47.360;9.650;2022-08-01T14:05:47;29.80;43.00
46378;DHT22;32083;47.360;9.650;2022-08-01T14:08:14;29.70;42.00
46378;DHT22;32083;47.360;9.650;2022-08-01T14:10:40;29.70;41.40
46378;DHT22;32083;47.360;9.650;2022-08-01T14:13:06;29.70;42.10
46378;DHT22;32083;47.360;9.650;2022-08-01T14:15:33;29.70;42.40
46378;DHT22;32083;47.360;9.650;2022-08-01T14:17:59;29.70;44.50
46378;DHT22;32083;47.360;9.650;2022-08-01T14:20:25;29.70;42.20
46378;DHT22;32083;47.360;9.650;2022-08-01T14:22:51;30.00;43.10
46378;DHT22;32083;47.360;9.650;2022-08-01T14:25:17;30.00;42.50
46378;DHT22;32083;47.360;9.650;2022-08-01T14:27:44;30.30;46.00
46378;DHT22;32083;47.360;9.650;2022-08-01T14:30:11;30.30;41.20
46378;DHT22;32083;47.360;9.650;2022-08-01T14:32:37;30.40;42.00
46378;DHT22;32083;47.360;9.650;2022-08-01T14:35:05;30.10;39.90
46378;DHT22;32083;47.360;9.650;2022-08-01T14:37:32;30.30;42.70
46378;DHT22;32083;47.360;9.650;2022-08-01T14:39:59;30.30;42.80
46378;DHT22;32083;47.360;9.650;2022-08-01T14:42:26;30.10;41.10
46378;DHT22;32083;47.360;9.650;2022-08-01T14:44:51;30.30;41.30
46378;DHT22;32083;47.360;9.650;2022-08-01T14:47:17;30.20;40.10
46378;DHT22;32083;47.360;9.650;2022-08-01T14:49:43;30.20;41.00
46378;DHT22;32083;47.360;9.650;2022-08-01T14:52:09;30.20;41.90
46378;DHT22;32083;47.360;9.650;2022-08-01T14:54:35;30.20;41.10
46378;DHT22;32083;47.360;9.650;2022-08-01T14:57:01;30.30;41.20
46378;DHT22;32083;47.360;9.650;2022-08-01T14:59:27;30.20;41.20
46378;DHT22;32083;47.360;9.650;2022-08-01T15:01:53;30.30;40.30
46378;DHT22;32083;47.360;9.650;2022-08-01T15:04:19;30.30;42.10
46378;DHT22;32083;47.360;9.650;2022-08-01T15:06:45;30.50;41.90
46378;DHT22;32083;47.360;9.650;2022-08-01T15:09:11;30.70;42.60
46378;DHT22;32083;47.360;9.650;2022-08-01T15:11:37;30.80;42.50
46378;DHT22;32083;47.360;9.650;2022-08-01T15:14:03;30.80;42.40
46378;DHT22;32083;47.360;9.650;2022-08-01T15:16:48;30.90;41.60
46378;DHT22;32083;47.360;9.650;2022-08-01T15:19:14;30.90;41.40
46378;DHT22;32083;47.360;9.650;2022-08-01T15:21:40;30.80;40.50
46378;DHT22;32083;47.360;9.650;2022-08-01T15:24:07;30.80;41.10
46378;DHT22;32083;47.360;9.650;2022-08-01T15:26:33;30.80;42.30
46378;DHT22;32083;47.360;9.650;2022-08-01T15:28:59;30.70;40.30
46378;DHT22;32083;47.360;9.650;2022-08-01T15:31:24;30.50;38.70
46378;DHT22;32083;47.360;9.650;2022-08-01T15:33:50;30.50;40.60
46378;DHT22;32083;47.360;9.650;2022-08-01T15:36:17;30.50;41.00
46378;DHT22;32083;47.360;9.650;2022-08-01T15:38:43;30.50;38.60
46378;DHT22;32083;47.360;9.650;2022-08-01T15:41:09;30.60;41.00
46378;DHT22;32083;47.360;9.650;2022-08-01T15:43:35;30.50;41.20
46378;DHT22;32083;47.360;9.650;2022-08-01T15:46:00;30.50;41.10
46378;DHT22;32083;47.360;9.650;2022-08-01T15:48:27;30.40;38.70
46378;DHT22;32083;47.360;9.650;2022-08-01T15:50:53;30.30;39.10
46378;DHT22;32083;47.360;9.650;2022-08-01T15:53:19;30.10;39.60
46378;DHT22;32083;47.360;9.650;2022-08-01T15:55:45;30.10;38.60
46378;DHT22;32083;47.360;9.650;2022-08-01T15:58:11;30.00;39.10
46378;DHT22;32083;47.360;9.650;2022-08-01T16:00:37;29.90;39.20
46378;DHT22;32083;47.360;9.650;2022-08-01T16:03:03;29.90;39.60
46378;DHT22;32083;47.360;9.650;2022-08-01T16:05:29;29.90;39.30
46378;DHT22;32083;47.360;9.650;2022-08-01T16:07:55;29.90;40.30
46378;DHT22;32083;47.360;9.650;2022-08-01T16:10:22;29.90;39.50
46378;DHT22;32083;47.360;9.650;2022-08-01T16:12:48;30.10;39.70
46378;DHT22;32083;47.360;9.650;2022-08-01T16:15:14;30.10;39.40
46378;DHT22;32083;47.360;9.650;2022-08-01T16:17:40;30.00;38.30
46378;DHT22;32083;47.360;9.650;2022-08-01T16:20:06;30.10;40.10
46378;DHT22;32083;47.360;9.650;2022-08-01T16:22:32;30.20;39.00
46378;DHT22;32083;47.360;9.650;2022-08-01T16:25:02;30.30;41.10
46378;DHT22;32083;47.360;9.650;2022-08-01T16:27:28;30.30;39.00
46378;DHT22;32083;47.360;9.650;2022-08-01T16:29:56;30.30;37.80
46378;DHT22;32083;47.360;9.650;2022-08-01T16:32:22;30.30;38.60
46378;DHT22;32083;47.360;9.650;2022-08-01T16:34:48;30.30;40.40
46378;DHT22;32083;47.360;9.650;2022-08-01T16:37:15;30.30;38.10
46378;DHT22;32083;47.360;9.650;2022-08-01T16:39:41;30.30;39.50
46378;DHT22;32083;47.360;9.650;2022-08-01T16:42:07;30.30;38.20
46378;DHT22;32083;47.360;9.650;2022-08-01T16:44:33;30.20;37.20
46378;DHT22;32083;47.360;9.650;2022-08-01T16:46:59;30.20;39.50
46378;DHT22;32083;47.360;9.650;2022-08-01T16:49:25;30.30;39.00
46378;DHT22;32083;47.360;9.650;2022-08-01T16:51:51;30.20;38.20
46378;DHT22;32083;47.360;9.650;2022-08-01T16:54:16;30.20;37.50
46378;DHT22;32083;47.360;9.650;2022-08-01T16:56:42;30.10;36.10
46378;DHT22;32083;47.360;9.650;2022-08-01T16:59:09;30.00;36.80
46378;DHT22;32083;47.360;9.650;2022-08-01T17:01:35;29.90;37.90
46378;DHT22;32083;47.360;9.650;2022-08-01T17:04:01;29.90;40.70
46378;DHT22;32083;47.360;9.650;2022-08-01T17:06:28;29.90;41.70
46378;DHT22;32083;47.360;9.650;2022-08-01T17:08:54;30.00;41.40
46378;DHT22;32083;47.360;9.650;2022-08-01T17:11:20;30.00;41.10
46378;DHT22;32083;47.360;9.650;2022-08-01T17:13:46;30.10;42.70
46378;DHT22;32083;47.360;9.650;2022-08-01T17:16:12;29.90;39.70
46378;DHT22;32083;47.360;9.650;2022-08-01T17:18:38;29.80;39.90
46378;DHT22;32083;47.360;9.650;2022-08-01T17:21:04;29.70;38.90
46378;DHT22;32083;47.360;9.650;2022-08-01T17:23:31;29.60;39.60
46378;DHT22;32083;47.360;9.650;2022-08-01T17:25:58;29.60;37.90
46378;DHT22;32083;47.360;9.650;2022-08-01T17:28:24;29.50;38.00
46378;DHT22;32083;47.360;9.650;2022-08-01T17:30:50;29.40;38.50
46378;DHT22;32083;47.360;9.650;2022-08-01T17:33:16;29.40;38.60
46378;DHT22;32083;47.360;9.650;2022-08-01T17:35:42;29.40;38.90
46378;DHT22;32083;47.360;9.650;2022-08-01T17:38:08;29.40;38.70
46378;DHT22;32083;47.360;9.650;2022-08-01T17:40:34;29.40;41.20
46378;DHT22;32083;47.360;9.650;2022-08-01T17:43:00;29.40;42.50
46378;DHT22;32083;47.360;9.650;2022-08-01T17:45:27;29.40;43.70
46378;DHT22;32083;47.360;9.650;2022-08-01T17:47:53;29.40;43.80
46378;DHT22;32083;47.360;9.650;2022-08-01T17:50:19;29.40;42.80
46378;DHT22;32083;47.360;9.650;2022-08-01T17:52:45;29.30;41.80
46378;DHT22;32083;47.360;9.650;2022-08-01T17:55:11;29.20;42.80
46378;DHT22;32083;47.360;9.650;2022-08-01T17:57:38;29.10;41.80
46378;DHT22;32083;47.360;9.650;2022-08-01T18:00:05;29.00;41.50
46378;DHT22;32083;47.360;9.650;2022-08-01T18:02:31;29.00;43.10
46378;DHT22;32083;47.360;9.650;2022-08-01T18:04:57;28.90;44.20
46378;DHT22;32083;47.360;9.650;2022-08-01T18:07:23;28.90;46.00
46378;DHT22;32083;47.360;9.650;2022-08-01T18:09:49;28.80;47.80
46378;DHT22;32083;47.360;9.650;2022-08-01T18:12:16;28.70;48.00
46378;DHT22;32083;47.360;9.650;2022-08-01T18:14:44;28.60;48.80
46378;DHT22;32083;47.360;9.650;2022-08-01T18:17:10;28.50;50.10
46378;DHT22;32083;47.360;9.650;2022-08-01T18:19:36;28.40;49.20
46378;DHT22;32083;47.360;9.650;2022-08-01T18:22:03;28.30;49.80
46378;DHT22;32083;47.360;9.650;2022-08-01T18:24:29;28.20;50.70
46378;DHT22;32083;47.360;9.650;2022-08-01T18:26:55;28.20;50.70
46378;DHT22;32083;47.360;9.650;2022-08-01T18:29:23;28.00;48.20
46378;DHT22;32083;47.360;9.650;2022-08-01T18:31:50;28.00;48.60
46378;DHT22;32083;47.360;9.650;2022-08-01T18:34:17;28.00;48.60
46378;DHT22;32083;47.360;9.650;2022-08-01T18:36:43;27.80;47.80
46378;DHT22;32083;47.360;9.650;2022-08-01T18:39:09;27.60;49.00
46378;DHT22;32083;47.360;9.650;2022-08-01T18:41:36;27.30;50.10
46378;DHT22;32083;47.360;9.650;2022-08-01T18:44:04;27.20;51.50
46378;DHT22;32083;47.360;9.650;2022-08-01T18:46:30;27.10;52.20
46378;DHT22;32083;47.360;9.650;2022-08-01T18:48:56;26.90;53.00
46378;DHT22;32083;47.360;9.650;2022-08-01T18:51:22;26.80;54.00
46378;DHT22;32083;47.360;9.650;2022-08-01T18:53:49;26.60;54.30
46378;DHT22;32083;47.360;9.650;2022-08-01T18:56:17;26.60;54.90
46378;DHT22;32083;47.360;9.650;2022-08-01T18:58:43;26.30;55.30
46378;DHT22;32083;47.360;9.650;2022-08-01T19:01:08;26.30;55.50
46378;DHT22;32083;47.360;9.650;2022-08-01T19:03:35;26.30;55.00
46378;DHT22;32083;47.360;9.650;2022-08-01T19:06:02;26.40;55.00
46378;DHT22;32083;47.360;9.650;2022-08-01T19:08:28;26.40;54.70
46378;DHT22;32083;47.360;9.650;2022-08-01T19:10:54;26.30;54.40
46378;DHT22;32083;47.360;9.650;2022-08-01T19:13:20;26.30;53.50
46378;DHT22;32083;47.360;9.650;2022-08-01T19:15:46;26.10;55.20
46378;DHT22;32083;47.360;9.650;2022-08-01T19:18:12;26.20;54.80
46378;DHT22;32083;47.360;9.650;2022-08-01T19:20:40;26.20;54.90
46378;DHT22;32083;47.360;9.650;2022-08-01T19:23:08;26.10;55.10
46378;DHT22;32083;47.360;9.650;2022-08-01T19:25:55;26.10;55.70
46378;DHT22;32083;47.360;9.650;2022-08-01T19:28:26;26.00;55.70
46378;DHT22;32083;47.360;9.650;2022-08-01T19:30:54;26.00;55.30
46378;DHT22;32083;47.360;9.650;2022-08-01T19:33:20;26.00;55.80
46378;DHT22;32083;47.360;9.650;2022-08-01T19:35:51;26.00;55.80
46378;DHT22;32083;47.360;9.650;2022-08-01T19:38:17;26.00;55.90
46378;DHT22;32083;47.360;9.650;2022-08-01T19:40:43;26.00;55.70
46378;DHT22;32083;47.360;9.650;2022-08-01T19:43:10;26.10;55.70
46378;DHT22;32083;47.360;9.650;2022-08-01T19:45:40;26.00;56.20
46378;DHT22;32083;47.360;9.650;2022-08-01T19:48:07;26.00;56.10
46378;DHT22;32083;47.360;9.650;2022-08-01T19:50:33;25.90;55.10
46378;DHT22;32083;47.360;9.650;2022-08-01T19:53:03;25.90;55.80
46378;DHT22;32083;47.360;9.650;2022-08-01T19:55:30;25.90;56.50
46378;DHT22;32083;47.360;9.650;2022-08-01T19:57:57;25.60;56.70
46378;DHT22;32083;47.360;9.650;2022-08-01T20:00:24;25.60;57.00
46378;DHT22;32083;47.360;9.650;2022-08-01T20:02:52;25.50;57.40
46378;DHT22;32083;47.360;9.650;2022-08-01T20:05:22;25.40;57.10
46378;DHT22;32083;47.360;9.650;2022-08-01T20:07:49;25.40;57.80